createdAt,value
2022-09-20T00:00:20.735Z,99.50
2022-09-20T00:02:47.417Z,99.70
2022-09-20T00:05:14.153Z,99.70
2022-09-20T00:07:40.863Z,99.70
2022-09-20T00:10:07.530Z,99.80
2022-09-20T00:12:34.186Z,99.80
2022-09-20T00:15:00.821Z,99.70
2022-09-20T00:17:27.492Z,99.80
2022-09-20T00:19:54.204Z,99.80
2022-09-20T00:22:20.867Z,99.90
2022-09-20T00:24:49.140Z,99.90
2022-09-20T00:27:15.955Z,99.90
2022-09-20T00:29:42.615Z,99.90
2022-09-20T00:32:09.374Z,99.90
2022-09-20T00:34:54.664Z,99.90
2022-09-20T00:37:21.511Z,99.90
2022-09-20T00:39:48.198Z,99.90
2022-09-20T00:42:14.869Z,99.90
2022-09-20T00:44:42.676Z,99.90
2022-09-20T00:47:09.369Z,99.90
2022-09-20T00:49:36.034Z,99.90
2022-09-20T00:52:02.710Z,99.90
2022-09-20T00:54:29.420Z,99.90
2022-09-20T00:56:56.088Z,99.90
2022-09-20T00:59:22.796Z,99.90
2022-09-20T01:01:49.470Z,99.90
2022-09-20T01:04:16.117Z,99.90
2022-09-20T01:06:42.849Z,99.90
2022-09-20T01:09:09.503Z,99.90
2022-09-20T01:11:36.567Z,99.90
2022-09-20T01:14:03.323Z,99.90
2022-09-20T01:16:30.366Z,99.90
2022-09-20T01:18:57.122Z,99.90
2022-09-20T01:21:23.843Z,99.90
2022-09-20T01:23:50.492Z,99.90
2022-09-20T01:26:17.187Z,99.90
2022-09-20T01:28:43.850Z,99.90
2022-09-20T01:31:10.534Z,99.90
2022-09-20T01:33:37.211Z,99.90
2022-09-20T01:36:03.952Z,99.90
2022-09-20T01:38:30.612Z,99.90
2022-09-20T01:40:57.354Z,99.90
2022-09-20T01:43:24.048Z,99.90
2022-09-20T01:45:50.820Z,99.90
2022-09-20T01:48:17.531Z,99.90
2022-09-20T01:50:44.203Z,99.90
2022-09-20T01:53:10.892Z,99.90
2022-09-20T01:55:37.567Z,99.90
2022-09-20T01:58:04.223Z,99.90
2022-09-20T02:00:35.045Z,99.90
2022-09-20T02:03:01.715Z,99.90
2022-09-20T02:05:28.511Z,99.90
2022-09-20T02:07:55.259Z,99.90
2022-09-20T02:10:21.979Z,99.90
2022-09-20T02:12:48.632Z,99.90
2022-09-20T02:15:15.297Z,99.90
2022-09-20T02:17:42.081Z,99.90
2022-09-20T02:20:09.282Z,99.90
2022-09-20T02:22:35.958Z,99.90
2022-09-20T02:25:02.736Z,99.90
2022-09-20T02:27:29.462Z,99.90
2022-09-20T02:29:56.111Z,99.90
2022-09-20T02:32:24.930Z,99.90
2022-09-20T02:34:51.714Z,99.90
2022-09-20T02:37:18.759Z,99.90
2022-09-20T02:39:45.395Z,99.90
2022-09-20T02:42:12.115Z,99.90
2022-09-20T02:44:38.753Z,99.90
2022-09-20T02:47:05.387Z,99.90
2022-09-20T02:49:32.054Z,99.90
2022-09-20T02:51:58.921Z,99.90
2022-09-20T02:54:25.631Z,99.90
2022-09-20T02:56:52.860Z,99.90
2022-09-20T02:59:19.537Z,99.90
2022-09-20T03:01:46.434Z,99.90
2022-09-20T03:04:13.196Z,99.90
2022-09-20T03:06:39.894Z,99.90
2022-09-20T03:09:06.589Z,99.90
2022-09-20T03:11:33.224Z,99.90
2022-09-20T03:13:59.951Z,99.90
2022-09-20T03:16:26.842Z,99.90
2022-09-20T03:18:53.556Z,99.90
2022-09-20T03:21:22.683Z,99.90
2022-09-20T03:23:49.325Z,99.90
2022-09-20T03:26:16.025Z,99.90
2022-09-20T03:28:43.578Z,99.90
2022-09-20T03:31:10.259Z,99.90
2022-09-20T03:33:37.004Z,99.90
2022-09-20T03:36:04.172Z,99.90
2022-09-20T03:38:30.884Z,99.90
2022-09-20T03:40:57.999Z,99.90
2022-09-20T03:43:24.715Z,99.90
2022-09-20T03:45:51.420Z,99.90
2022-09-20T03:48:18.152Z,99.90
2022-09-20T03:50:44.792Z,99.90
2022-09-20T03:53:11.432Z,99.90
2022-09-20T03:55:38.192Z,99.90
2022-09-20T03:58:08.580Z,99.90
2022-09-20T04:00:35.590Z,99.90
2022-09-20T04:03:02.272Z,99.90
2022-09-20T04:05:28.908Z,99.90
2022-09-20T04:07:55.848Z,99.90
2022-09-20T04:10:22.515Z,99.90
2022-09-20T04:12:49.179Z,99.90
2022-09-20T04:15:16.127Z,99.90
2022-09-20T04:17:43.121Z,99.90
2022-09-20T04:20:09.809Z,99.90
2022-09-20T04:22:37.050Z,99.90
2022-09-20T04:25:03.772Z,99.90
2022-09-20T04:27:30.519Z,99.90
2022-09-20T04:29:57.177Z,99.90
2022-09-20T04:32:23.875Z,99.90
2022-09-20T04:35:09.217Z,99.90
2022-09-20T04:37:36.089Z,99.90
2022-09-20T04:40:02.779Z,99.90
2022-09-20T04:42:30.142Z,99.90
2022-09-20T04:44:56.963Z,99.90
2022-09-20T04:47:23.834Z,99.90
2022-09-20T04:49:50.534Z,99.90
2022-09-20T04:52:17.195Z,99.90
2022-09-20T04:54:44.679Z,99.90
2022-09-20T04:57:11.698Z,99.90
2022-09-20T04:59:38.397Z,99.90
2022-09-20T05:02:05.492Z,99.90
2022-09-20T05:04:32.331Z,99.90
2022-09-20T05:06:59.144Z,99.90
2022-09-20T05:09:25.825Z,99.90
2022-09-20T05:11:52.549Z,99.90
2022-09-20T05:14:19.549Z,99.90
2022-09-20T05:16:46.716Z,99.90
2022-09-20T05:19:13.605Z,99.90
2022-09-20T05:21:41.259Z,99.90
2022-09-20T05:24:09.575Z,99.90
2022-09-20T05:26:39.030Z,99.90
2022-09-20T05:29:05.709Z,99.90
2022-09-20T05:31:36.091Z,99.90
2022-09-20T05:34:02.828Z,99.90
2022-09-20T05:36:34.233Z,99.90
2022-09-20T05:39:03.500Z,99.90
2022-09-20T05:41:31.945Z,99.90
2022-09-20T05:43:58.603Z,99.90
2022-09-20T05:46:25.259Z,99.90
2022-09-20T05:48:51.969Z,99.90
2022-09-20T05:51:18.652Z,99.90
2022-09-20T05:53:45.292Z,99.90
2022-09-20T05:56:12.187Z,99.90
2022-09-20T05:58:38.979Z,99.90
2022-09-20T06:01:05.786Z,99.90
2022-09-20T06:03:32.465Z,99.90
2022-09-20T06:05:59.140Z,99.90
2022-09-20T06:08:26.005Z,99.90
2022-09-20T06:10:52.906Z,99.90
2022-09-20T06:13:20.731Z,99.90
2022-09-20T06:15:47.421Z,99.90
2022-09-20T06:18:14.088Z,99.90
2022-09-20T06:20:40.759Z,99.90
2022-09-20T06:23:07.393Z,99.90
2022-09-20T06:25:34.075Z,99.90
2022-09-20T06:28:00.747Z,99.90
2022-09-20T06:30:27.555Z,99.90
2022-09-20T06:32:54.566Z,99.90
2022-09-20T06:35:21.269Z,99.90
2022-09-20T06:38:06.854Z,99.90
2022-09-20T06:40:52.296Z,99.90
2022-09-20T06:43:19.427Z,99.90
2022-09-20T06:45:46.108Z,99.90
2022-09-20T06:48:13.387Z,99.90
2022-09-20T06:50:40.116Z,99.90
2022-09-20T06:53:07.180Z,99.90
2022-09-20T06:55:34.719Z,99.90
2022-09-20T06:58:01.469Z,99.90
2022-09-20T07:00:28.102Z,99.90
2022-09-20T07:02:56.803Z,99.90
2022-09-20T07:05:26.596Z,99.90
2022-09-20T07:07:53.269Z,99.90
2022-09-20T07:10:20.005Z,99.90
2022-09-20T07:12:46.841Z,99.90
2022-09-20T07:15:14.952Z,99.90
2022-09-20T07:17:42.122Z,99.90
2022-09-20T07:20:08.834Z,99.90
2022-09-20T07:22:35.658Z,99.90
2022-09-20T07:25:02.631Z,99.90
2022-09-20T07:27:29.588Z,99.90
2022-09-20T07:29:56.499Z,99.90
2022-09-20T07:32:23.179Z,99.90
2022-09-20T07:34:49.832Z,99.90
2022-09-20T07:37:16.529Z,99.90
2022-09-20T07:39:43.186Z,99.90
2022-09-20T07:42:09.881Z,99.90
2022-09-20T07:44:36.549Z,99.90
2022-09-20T07:47:03.335Z,99.90
2022-09-20T07:49:30.385Z,99.90
2022-09-20T07:51:57.098Z,99.90
2022-09-20T07:54:23.791Z,99.90
2022-09-20T07:56:50.460Z,99.90
2022-09-20T07:59:17.201Z,99.90
2022-09-20T08:01:44.055Z,99.90
2022-09-20T08:04:10.728Z,99.90
2022-09-20T08:06:37.983Z,99.90
2022-09-20T08:09:08.969Z,99.90
2022-09-20T08:11:39.481Z,99.90
2022-09-20T08:14:07.760Z,99.90
2022-09-20T08:16:35.341Z,99.90
2022-09-20T08:19:02.050Z,99.90
2022-09-20T08:21:28.776Z,99.90
2022-09-20T08:23:55.668Z,99.90
2022-09-20T08:26:23.549Z,99.90
2022-09-20T08:28:52.165Z,99.90
2022-09-20T08:31:21.964Z,99.90
2022-09-20T08:33:48.700Z,99.90
2022-09-20T08:36:15.363Z,99.90
2022-09-20T08:41:29.125Z,99.50
2022-09-20T08:43:55.927Z,99.10
2022-09-20T08:46:23.388Z,98.10
2022-09-20T08:48:50.335Z,98.20
2022-09-20T08:51:22.580Z,97.80
2022-09-20T08:53:50.113Z,97.50
2022-09-20T08:56:16.988Z,97.00
2022-09-20T08:58:43.933Z,97.40
2022-09-20T09:01:10.663Z,96.80
2022-09-20T09:03:37.495Z,96.60
2022-09-20T09:06:07.538Z,95.30
2022-09-20T09:08:38.196Z,95.30
2022-09-20T09:11:08.482Z,95.40
2022-09-20T09:13:35.169Z,95.30
2022-09-20T09:16:02.873Z,94.60
2022-09-20T09:18:31.803Z,95.00
2022-09-20T09:20:59.311Z,94.40
2022-09-20T09:23:26.069Z,94.70
2022-09-20T09:25:52.782Z,93.90
2022-09-20T09:28:19.470Z,93.50
2022-09-20T09:30:49.706Z,92.50
2022-09-20T09:33:16.405Z,92.80
2022-09-20T09:35:43.142Z,92.70
2022-09-20T09:38:09.822Z,92.60
2022-09-20T09:40:36.622Z,92.00
2022-09-20T09:43:03.642Z,91.70
2022-09-20T09:45:30.561Z,91.50
2022-09-20T09:47:57.282Z,92.00
2022-09-20T09:50:23.980Z,91.60
2022-09-20T09:52:50.665Z,91.50
2022-09-20T09:55:17.386Z,91.70
2022-09-20T09:57:44.100Z,91.40
2022-09-20T10:00:19.289Z,91.20
2022-09-20T10:02:48.496Z,91.70
2022-09-20T10:05:15.188Z,90.90
2022-09-20T10:07:41.940Z,91.70
2022-09-20T10:10:08.663Z,91.30
2022-09-20T10:12:35.347Z,91.30
2022-09-20T10:15:02.052Z,91.10
2022-09-20T10:17:28.771Z,91.10
2022-09-20T10:19:55.414Z,91.50
2022-09-20T10:22:23.294Z,90.90
2022-09-20T10:24:51.682Z,90.00
2022-09-20T10:27:19.291Z,90.00
2022-09-20T10:29:46.959Z,89.70
2022-09-20T10:32:15.431Z,89.20
2022-09-20T10:34:42.291Z,89.00
2022-09-20T10:37:08.972Z,89.70
2022-09-20T10:39:35.635Z,89.00
2022-09-20T10:42:21.286Z,87.60
2022-09-20T10:44:48.046Z,87.80
2022-09-20T10:47:14.915Z,88.80
2022-09-20T10:49:41.702Z,88.90
2022-09-20T10:52:08.432Z,88.80
2022-09-20T10:54:35.142Z,87.40
2022-09-20T10:57:02.978Z,87.80
2022-09-20T10:59:30.166Z,87.20
2022-09-20T11:01:57.732Z,86.80
2022-09-20T11:04:24.472Z,86.90
2022-09-20T11:06:51.236Z,85.90
2022-09-20T11:09:17.883Z,86.30
2022-09-20T11:11:44.578Z,86.20
2022-09-20T11:14:11.296Z,87.10
2022-09-20T11:16:38.038Z,86.50
2022-09-20T11:19:05.230Z,86.90
2022-09-20T11:21:32.018Z,85.80
2022-09-20T11:23:58.690Z,85.00
2022-09-20T11:26:25.944Z,85.10
2022-09-20T11:28:52.668Z,86.20
2022-09-20T11:31:21.874Z,86.50
2022-09-20T11:33:49.171Z,86.40
2022-09-20T11:36:15.835Z,86.60
2022-09-20T11:38:42.516Z,84.90
2022-09-20T11:41:09.222Z,84.00
2022-09-20T11:43:39.044Z,83.90
2022-09-20T11:46:05.799Z,85.30
2022-09-20T11:48:32.561Z,84.90
2022-09-20T11:50:59.278Z,84.30
2022-09-20T11:53:26.005Z,83.90
2022-09-20T11:55:52.736Z,84.90
2022-09-20T11:58:22.467Z,85.30
2022-09-20T12:00:49.245Z,83.70
2022-09-20T12:03:16.020Z,83.80
2022-09-20T12:05:43.807Z,83.30
2022-09-20T12:08:10.553Z,83.50
2022-09-20T12:10:37.251Z,84.10
2022-09-20T12:13:03.949Z,84.20
2022-09-20T12:15:30.828Z,84.50
2022-09-20T12:17:57.672Z,85.20
2022-09-20T12:20:24.430Z,83.50
2022-09-20T12:22:51.089Z,83.70
2022-09-20T12:25:17.746Z,83.30
2022-09-20T12:27:44.660Z,84.30
2022-09-20T12:30:11.283Z,83.40
2022-09-20T12:32:37.938Z,84.10
2022-09-20T12:35:04.674Z,83.70
2022-09-20T12:37:31.312Z,84.00
2022-09-20T12:39:58.484Z,82.80
2022-09-20T12:42:26.566Z,83.90
2022-09-20T12:44:53.271Z,83.10
2022-09-20T12:47:20.104Z,83.50
2022-09-20T12:50:05.869Z,83.10
2022-09-20T12:52:53.437Z,82.40
2022-09-20T12:55:20.274Z,82.40
2022-09-20T12:57:47.438Z,82.10
2022-09-20T13:00:14.192Z,82.10
2022-09-20T13:02:41.110Z,82.80
2022-09-20T13:05:07.896Z,82.70
2022-09-20T13:07:34.624Z,81.90
2022-09-20T13:10:01.770Z,81.40
2022-09-20T13:12:28.395Z,82.00
2022-09-20T13:14:55.117Z,82.70
2022-09-20T13:17:22.099Z,81.30
2022-09-20T13:19:49.942Z,81.70
2022-09-20T13:22:17.473Z,82.30
2022-09-20T13:24:45.096Z,82.10
2022-09-20T13:27:11.820Z,82.40
2022-09-20T13:29:38.467Z,82.50
2022-09-20T13:32:05.491Z,82.10
2022-09-20T13:34:32.759Z,81.40
2022-09-20T13:37:00.280Z,81.90
2022-09-20T13:39:27.046Z,81.80
2022-09-20T13:41:53.715Z,82.00
2022-09-20T13:44:20.528Z,81.80
2022-09-20T13:46:47.270Z,82.60
2022-09-20T13:49:14.918Z,82.40
2022-09-20T13:51:41.559Z,82.70
2022-09-20T13:54:08.239Z,82.70
2022-09-20T13:56:34.896Z,82.20
2022-09-20T13:59:01.691Z,82.70
2022-09-20T14:01:34.775Z,82.70
2022-09-20T14:04:01.434Z,82.50
2022-09-20T14:06:29.653Z,82.60
2022-09-20T14:08:56.387Z,82.60
2022-09-20T14:11:23.080Z,82.60
2022-09-20T14:13:49.784Z,82.90
2022-09-20T14:16:16.500Z,83.00
2022-09-20T14:18:43.264Z,81.30
2022-09-20T14:21:09.967Z,81.70
2022-09-20T14:23:36.634Z,81.20
2022-09-20T14:26:03.375Z,82.30
2022-09-20T14:28:30.043Z,82.30
2022-09-20T14:30:56.734Z,81.10
2022-09-20T14:33:23.895Z,82.10
2022-09-20T14:35:50.688Z,81.50
2022-09-20T14:38:17.440Z,81.90
2022-09-20T14:40:44.172Z,81.80
2022-09-20T14:43:10.836Z,82.70
2022-09-20T14:45:41.257Z,82.70
2022-09-20T14:48:11.191Z,82.10
2022-09-20T14:50:38.363Z,82.20
2022-09-20T14:53:05.098Z,81.70
2022-09-20T14:55:37.136Z,82.20
2022-09-20T14:58:04.384Z,82.10
2022-09-20T15:00:31.149Z,82.10
2022-09-20T15:02:58.041Z,81.90
2022-09-20T15:05:26.011Z,82.20
2022-09-20T15:07:52.780Z,81.50
2022-09-20T15:10:19.760Z,82.20
2022-09-20T15:12:46.455Z,82.20
2022-09-20T15:15:16.891Z,82.20
2022-09-20T15:17:43.812Z,82.20
2022-09-20T15:20:10.853Z,82.50
2022-09-20T15:22:38.606Z,83.10
2022-09-20T15:25:05.341Z,81.90
2022-09-20T15:27:32.374Z,81.80
2022-09-20T15:29:59.052Z,82.10
2022-09-20T15:32:25.742Z,82.10
2022-09-20T15:34:52.414Z,82.50
2022-09-20T15:37:19.074Z,82.60
2022-09-20T15:39:45.784Z,83.30
2022-09-20T15:42:12.526Z,82.80
2022-09-20T15:44:39.185Z,82.80
2022-09-20T15:47:05.877Z,82.70
2022-09-20T15:49:33.339Z,83.80
2022-09-20T15:52:00.392Z,83.20
2022-09-20T15:54:27.073Z,82.50
2022-09-20T15:56:53.736Z,83.40
2022-09-20T15:59:23.283Z,83.50
2022-09-20T16:01:50.146Z,83.20
2022-09-20T16:04:17.448Z,83.20
2022-09-20T16:06:44.177Z,82.60
2022-09-20T16:09:10.856Z,83.40
2022-09-20T16:11:37.625Z,83.90
2022-09-20T16:14:04.322Z,83.30
2022-09-20T16:16:31.479Z,83.30
2022-09-20T16:19:18.169Z,83.00
2022-09-20T16:21:46.958Z,83.50
2022-09-20T16:24:13.652Z,83.30
2022-09-20T16:26:40.425Z,83.70
2022-09-20T16:29:11.730Z,83.60
2022-09-20T16:31:41.861Z,83.90
2022-09-20T16:34:08.654Z,83.70
2022-09-20T16:36:35.397Z,84.20
2022-09-20T16:39:03.223Z,84.00
2022-09-20T16:41:31.045Z,84.50
2022-09-20T16:43:57.764Z,84.80
2022-09-20T16:46:27.437Z,83.90
2022-09-20T16:48:54.788Z,84.80
2022-09-20T16:51:22.108Z,85.60
2022-09-20T16:53:48.789Z,86.30
2022-09-20T16:56:18.989Z,86.50
2022-09-20T16:58:45.990Z,87.10
2022-09-20T17:01:12.791Z,87.50
2022-09-20T17:03:40.910Z,87.70
2022-09-20T17:06:07.962Z,87.90
2022-09-20T17:08:38.683Z,88.10
2022-09-20T17:11:05.356Z,88.30
2022-09-20T17:13:34.750Z,88.40
2022-09-20T17:16:01.549Z,88.30
2022-09-20T17:18:28.268Z,88.60
2022-09-20T17:20:54.918Z,88.50
2022-09-20T17:23:21.667Z,88.90
2022-09-20T17:25:48.400Z,88.60
2022-09-20T17:28:15.120Z,88.70
2022-09-20T17:30:41.779Z,88.60
2022-09-20T17:33:08.447Z,88.60
2022-09-20T17:35:35.181Z,88.90
2022-09-20T17:38:02.019Z,88.80
2022-09-20T17:40:28.722Z,88.70
2022-09-20T17:42:55.408Z,88.70
2022-09-20T17:45:22.089Z,88.70
2022-09-20T17:47:48.735Z,88.70
2022-09-20T17:50:15.461Z,88.70
2022-09-20T17:52:42.340Z,88.50
2022-09-20T17:55:09.013Z,88.70
2022-09-20T17:57:37.301Z,88.60
2022-09-20T18:00:04.068Z,88.70
2022-09-20T18:02:31.215Z,88.70
2022-09-20T18:04:57.912Z,88.70
2022-09-20T18:07:24.580Z,89.00
2022-09-20T18:09:51.263Z,88.90
2022-09-20T18:12:21.290Z,89.30
2022-09-20T18:14:48.192Z,89.50
2022-09-20T18:17:14.906Z,89.50
2022-09-20T18:19:43.190Z,89.30
2022-09-20T18:22:09.887Z,89.60
2022-09-20T18:24:36.583Z,89.70
2022-09-20T18:27:04.595Z,89.70
2022-09-20T18:29:36.697Z,89.90
2022-09-20T18:32:03.577Z,90.00
2022-09-20T18:34:33.480Z,90.10
2022-09-20T18:37:00.361Z,90.10
2022-09-20T18:39:27.093Z,90.30
2022-09-20T18:41:53.811Z,90.30
2022-09-20T18:44:20.469Z,90.30
2022-09-20T18:46:47.166Z,90.40
2022-09-20T18:49:15.081Z,90.60
2022-09-20T18:51:42.031Z,90.50
2022-09-20T18:54:11.805Z,90.70
2022-09-20T18:56:38.579Z,90.80
2022-09-20T18:59:06.232Z,90.80
2022-09-20T19:01:33.126Z,90.80
2022-09-20T19:03:59.942Z,91.00
2022-09-20T19:06:26.692Z,91.00
2022-09-20T19:08:53.719Z,91.00
2022-09-20T19:11:20.839Z,91.10
2022-09-20T19:13:47.548Z,91.20
2022-09-20T19:16:14.306Z,91.30
2022-09-20T19:18:40.969Z,91.50
2022-09-20T19:21:07.825Z,91.60
2022-09-20T19:23:34.735Z,91.80
2022-09-20T19:26:01.408Z,92.00
2022-09-20T19:28:28.081Z,92.00
2022-09-20T19:30:55.613Z,92.50
2022-09-20T19:33:22.388Z,92.50
2022-09-20T19:35:49.950Z,92.60
2022-09-20T19:38:17.755Z,92.70
2022-09-20T19:40:44.883Z,92.70
2022-09-20T19:43:13.828Z,93.00
2022-09-20T19:45:40.611Z,93.30
2022-09-20T19:48:07.282Z,93.00
2022-09-20T19:50:33.948Z,93.20
2022-09-20T19:53:04.103Z,93.10
2022-09-20T19:55:30.817Z,93.20
2022-09-20T19:57:57.702Z,93.20
2022-09-20T20:00:24.400Z,93.50
2022-09-20T20:02:51.282Z,93.60
2022-09-20T20:05:18.392Z,93.60
2022-09-20T20:07:46.365Z,93.60
2022-09-20T20:10:13.062Z,93.40
2022-09-20T20:12:39.754Z,93.30
2022-09-20T20:15:06.460Z,93.50
2022-09-20T20:17:33.108Z,93.60
2022-09-20T20:19:59.802Z,93.50
2022-09-20T20:22:29.341Z,93.90
2022-09-20T20:24:56.727Z,93.90
2022-09-20T20:27:23.542Z,93.90
2022-09-20T20:29:50.240Z,94.00
2022-09-20T20:32:16.964Z,94.10
2022-09-20T20:34:43.712Z,94.10
2022-09-20T20:37:10.413Z,94.10
2022-09-20T20:39:37.075Z,94.10
2022-09-20T20:42:03.731Z,94.10
2022-09-20T20:44:30.429Z,94.10
2022-09-20T20:46:57.174Z,94.20
2022-09-20T20:49:24.723Z,94.20
2022-09-20T20:51:51.417Z,94.20
2022-09-20T20:54:18.070Z,94.20
2022-09-20T20:56:44.766Z,94.30
2022-09-20T20:59:11.449Z,94.30
2022-09-20T21:01:38.227Z,94.40
2022-09-20T21:04:04.983Z,94.60
2022-09-20T21:06:31.974Z,94.60
2022-09-20T21:08:58.733Z,94.70
2022-09-20T21:11:25.400Z,95.20
2022-09-20T21:13:52.142Z,94.90
2022-09-20T21:16:18.872Z,95.10
2022-09-20T21:18:45.547Z,95.20
2022-09-20T21:21:12.225Z,95.30
2022-09-20T21:23:38.886Z,95.40
2022-09-20T21:26:08.440Z,95.50
2022-09-20T21:28:35.415Z,95.30
2022-09-20T21:31:05.035Z,95.50
2022-09-20T21:33:31.989Z,95.50
2022-09-20T21:35:59.406Z,95.60
2022-09-20T21:38:28.081Z,95.60
2022-09-20T21:40:57.488Z,95.70
2022-09-20T21:43:24.196Z,95.70
2022-09-20T21:45:50.939Z,95.70
2022-09-20T21:48:17.697Z,95.90
2022-09-20T21:50:44.409Z,96.10
2022-09-20T21:53:11.093Z,96.10
2022-09-20T21:55:37.787Z,96.50
2022-09-20T21:58:04.988Z,96.40
2022-09-20T22:00:31.664Z,96.80
2022-09-20T22:02:59.337Z,96.80
2022-09-20T22:05:28.745Z,96.90
2022-09-20T22:07:56.435Z,97.20
2022-09-20T22:10:23.479Z,97.10
2022-09-20T22:12:50.191Z,97.30
2022-09-20T22:15:16.857Z,97.40
2022-09-20T22:17:43.786Z,97.40
2022-09-20T22:20:10.515Z,97.50
2022-09-20T22:22:37.201Z,97.80
2022-09-20T22:25:03.900Z,97.50
2022-09-20T22:27:30.699Z,97.70
2022-09-20T22:30:00.338Z,97.60
2022-09-20T22:32:29.412Z,97.70
2022-09-20T22:34:57.853Z,97.60
2022-09-20T22:37:24.643Z,97.70
2022-09-20T22:39:51.327Z,97.70
2022-09-20T22:42:18.056Z,97.80
2022-09-20T22:44:44.791Z,97.90
2022-09-20T22:47:11.457Z,97.90
2022-09-20T22:49:38.283Z,98.00
2022-09-20T22:52:04.963Z,97.90
2022-09-20T22:54:31.743Z,98.00
2022-09-20T22:56:58.403Z,98.10
2022-09-20T22:59:25.087Z,98.00
2022-09-20T23:01:51.926Z,97.90
2022-09-20T23:04:18.978Z,97.90
2022-09-20T23:06:47.776Z,98.00
2022-09-20T23:09:14.509Z,97.90
2022-09-20T23:11:42.650Z,97.90
2022-09-20T23:14:09.451Z,97.90
2022-09-20T23:16:36.284Z,97.80
2022-09-20T23:19:03.083Z,97.80
2022-09-20T23:21:29.813Z,97.90
2022-09-20T23:23:56.531Z,97.80
2022-09-20T23:26:23.240Z,98.00
2022-09-20T23:28:49.945Z,98.00
2022-09-20T23:31:16.706Z,97.90
2022-09-20T23:33:46.607Z,98.10
2022-09-20T23:36:13.472Z,98.00
2022-09-20T23:38:40.169Z,98.00
2022-09-20T23:41:06.882Z,97.90
2022-09-20T23:43:33.652Z,98.00
2022-09-20T23:46:00.417Z,98.00
2022-09-20T23:48:27.244Z,98.10
2022-09-20T23:50:53.911Z,98.20
2022-09-20T23:53:20.594Z,98.20
2022-09-20T23:55:47.321Z,98.20
2022-09-20T23:58:14.021Z,98.20
